Moisie, Canada
Current Conditions -  °F | °C
As of 12:00 AM on Saturday 29 Nov 2014 (Local Time) from CYZV Reporting Station
Light Snow Light Snow  
Wind Chill: -1°   Ceiling: Unl
Heat Index:   Visibility: 15mi
Dew Point:   Wind: 6mph
Humidity: 85%   Direction: 10°N
Pressure: 30.01"   Gusts: NA
Location:  50.19°N, 66.1°W
Report Text: CYZV 290500Z 01005KT 15SM -SN FEW012 FEW060 SCT110 M13/M15 A3001 RMK CF1SC2AC1 CF TR SLP169
Loading
Personal Weather Stations






























Interactive Weather Map New forecast layout! Learn more

10-Day Weather Forecast

Advertisements
Track Severe Weather on mobile